sensor_id;sensor_type;location;lat;lon;timestamp;temperature;humidity
2363;DHT22;1192;51.664;7.626;2022-09-30T00:02:15;12.30;99.90
2363;DHT22;1192;51.664;7.626;2022-09-30T00:04:44;12.30;99.90
2363;DHT22;1192;51.664;7.626;2022-09-30T00:07:10;12.30;99.90
2363;DHT22;1192;51.664;7.626;2022-09-30T00:09:37;12.30;99.90
2363;DHT22;1192;51.664;7.626;2022-09-30T00:12:04;12.30;99.90
2363;DHT22;1192;51.664;7.626;2022-09-30T00:14:31;12.20;99.90
2363;DHT22;1192;51.664;7.626;2022-09-30T00:16:58;12.30;99.90
2363;DHT22;1192;51.664;7.626;2022-09-30T00:19:25;12.30;99.90
2363;DHT22;1192;51.664;7.626;2022-09-30T00:21:53;12.20;99.90
2363;DHT22;1192;51.664;7.626;2022-09-30T00:24:19;12.20;99.90
2363;DHT22;1192;51.664;7.626;2022-09-30T00:26:46;12.20;99.90
2363;DHT22;1192;51.664;7.626;2022-09-30T00:29:13;12.20;99.90
2363;DHT22;1192;51.664;7.626;2022-09-30T00:31:40;12.20;99.90
2363;DHT22;1192;51.664;7.626;2022-09-30T00:34:06;12.20;99.90
2363;DHT22;1192;51.664;7.626;2022-09-30T00:36:35;12.20;99.90
2363;DHT22;1192;51.664;7.626;2022-09-30T00:39:05;12.20;99.90
2363;DHT22;1192;51.664;7.626;2022-09-30T00:41:32;12.20;99.90
2363;DHT22;1192;51.664;7.626;2022-09-30T00:43:59;12.10;99.90
2363;DHT22;1192;51.664;7.626;2022-09-30T00:46:31;12.10;99.90
2363;DHT22;1192;51.664;7.626;2022-09-30T00:49:04;12.10;99.90
2363;DHT22;1192;51.664;7.626;2022-09-30T00:51:36;12.10;99.90
2363;DHT22;1192;51.664;7.626;2022-09-30T00:54:07;12.10;99.90
2363;DHT22;1192;51.664;7.626;2022-09-30T00:56:40;12.10;99.90
2363;DHT22;1192;51.664;7.626;2022-09-30T00:59:10;12.10;99.90
2363;DHT22;1192;51.664;7.626;2022-09-30T01:01:39;12.00;99.90
2363;DHT22;1192;51.664;7.626;2022-09-30T01:04:11;12.00;99.90
2363;DHT22;1192;51.664;7.626;2022-09-30T01:06:39;12.00;99.90
2363;DHT22;1192;51.664;7.626;2022-09-30T01:09:08;12.00;99.90
2363;DHT22;1192;51.664;7.626;2022-09-30T01:11:35;12.00;99.90
2363;DHT22;1192;51.664;7.626;2022-09-30T01:14:04;12.00;99.90
2363;DHT22;1192;51.664;7.626;2022-09-30T01:16:41;12.00;99.90
2363;DHT22;1192;51.664;7.626;2022-09-30T01:19:28;12.00;99.90
2363;DHT22;1192;51.664;7.626;2022-09-30T01:22:23;12.00;99.90
2363;DHT22;1192;51.664;7.626;2022-09-30T01:25:26;12.00;99.90
2363;DHT22;1192;51.664;7.626;2022-09-30T01:28:13;11.90;99.90
2363;DHT22;1192;51.664;7.626;2022-09-30T01:30:58;11.90;99.90
2363;DHT22;1192;51.664;7.626;2022-09-30T01:33:37;11.90;99.90
2363;DHT22;1192;51.664;7.626;2022-09-30T01:36:30;11.90;99.90
2363;DHT22;1192;51.664;7.626;2022-09-30T01:39:12;11.90;99.90
2363;DHT22;1192;51.664;7.626;2022-09-30T01:41:48;11.90;99.90
2363;DHT22;1192;51.664;7.626;2022-09-30T01:44:21;11.90;99.90
2363;DHT22;1192;51.664;7.626;2022-09-30T01:46:55;11.90;99.90
2363;DHT22;1192;51.664;7.626;2022-09-30T01:49:29;11.90;99.90
2363;DHT22;1192;51.664;7.626;2022-09-30T01:52:03;11.90;99.90
2363;DHT22;1192;51.664;7.626;2022-09-30T01:54:33;11.80;99.90
2363;DHT22;1192;51.664;7.626;2022-09-30T01:57:08;11.80;99.90
2363;DHT22;1192;51.664;7.626;2022-09-30T01:59:41;11.80;99.90
2363;DHT22;1192;51.664;7.626;2022-09-30T02:02:15;11.80;99.90
2363;DHT22;1192;51.664;7.626;2022-09-30T02:04:47;11.80;99.90
2363;DHT22;1192;51.664;7.626;2022-09-30T02:07:19;11.80;99.90
2363;DHT22;1192;51.664;7.626;2022-09-30T02:09:50;11.80;99.90
2363;DHT22;1192;51.664;7.626;2022-09-30T02:12:20;11.80;99.90
2363;DHT22;1192;51.664;7.626;2022-09-30T02:14:50;11.70;99.90
2363;DHT22;1192;51.664;7.626;2022-09-30T02:17:24;11.70;99.90
2363;DHT22;1192;51.664;7.626;2022-09-30T02:19:58;11.70;99.90
2363;DHT22;1192;51.664;7.626;2022-09-30T02:22:28;11.70;99.90
2363;DHT22;1192;51.664;7.626;2022-09-30T02:24:59;11.70;99.90
2363;DHT22;1192;51.664;7.626;2022-09-30T02:27:35;11.70;99.90
2363;DHT22;1192;51.664;7.626;2022-09-30T02:30:08;11.70;99.90
2363;DHT22;1192;51.664;7.626;2022-09-30T02:32:41;11.70;99.90
2363;DHT22;1192;51.664;7.626;2022-09-30T02:35:14;11.70;99.90
2363;DHT22;1192;51.664;7.626;2022-09-30T02:37:45;11.70;99.90
2363;DHT22;1192;51.664;7.626;2022-09-30T02:40:19;11.70;99.90
2363;DHT22;1192;51.664;7.626;2022-09-30T02:42:47;11.60;99.90
2363;DHT22;1192;51.664;7.626;2022-09-30T02:45:16;11.60;99.90
2363;DHT22;1192;51.664;7.626;2022-09-30T02:47:54;11.60;99.90
2363;DHT22;1192;51.664;7.626;2022-09-30T02:50:27;11.60;99.90
2363;DHT22;1192;51.664;7.626;2022-09-30T02:53:03;11.60;99.90
2363;DHT22;1192;51.664;7.626;2022-09-30T02:55:42;11.60;99.90
2363;DHT22;1192;51.664;7.626;2022-09-30T02:58:15;11.60;99.90
2363;DHT22;1192;51.664;7.626;2022-09-30T03:00:42;11.60;99.90
2363;DHT22;1192;51.664;7.626;2022-09-30T03:03:14;11.60;99.90
2363;DHT22;1192;51.664;7.626;2022-09-30T03:05:42;11.60;99.90
2363;DHT22;1192;51.664;7.626;2022-09-30T03:08:09;11.60;99.90
2363;DHT22;1192;51.664;7.626;2022-09-30T03:10:37;11.50;99.90
2363;DHT22;1192;51.664;7.626;2022-09-30T03:13:20;11.50;99.90
2363;DHT22;1192;51.664;7.626;2022-09-30T03:16:04;11.50;99.90
2363;DHT22;1192;51.664;7.626;2022-09-30T03:18:51;11.50;99.90
2363;DHT22;1192;51.664;7.626;2022-09-30T03:21:33;11.50;99.90
2363;DHT22;1192;51.664;7.626;2022-09-30T03:27:07;11.50;99.90
2363;DHT22;1192;51.664;7.626;2022-09-30T03:29:44;11.50;99.90
2363;DHT22;1192;51.664;7.626;2022-09-30T03:32:23;11.40;99.90
2363;DHT22;1192;51.664;7.626;2022-09-30T03:35:03;11.40;99.90
2363;DHT22;1192;51.664;7.626;2022-09-30T03:37:43;11.40;99.90
2363;DHT22;1192;51.664;7.626;2022-09-30T03:40:18;11.40;99.90
2363;DHT22;1192;51.664;7.626;2022-09-30T03:42:53;11.40;99.90
2363;DHT22;1192;51.664;7.626;2022-09-30T03:45:25;11.40;99.90
2363;DHT22;1192;51.664;7.626;2022-09-30T03:47:56;11.40;99.90
2363;DHT22;1192;51.664;7.626;2022-09-30T03:50:27;11.40;99.90
2363;DHT22;1192;51.664;7.626;2022-09-30T03:52:55;11.40;99.90
2363;DHT22;1192;51.664;7.626;2022-09-30T03:55:23;11.40;99.90
2363;DHT22;1192;51.664;7.626;2022-09-30T03:57:50;11.40;99.90
2363;DHT22;1192;51.664;7.626;2022-09-30T04:00:18;11.40;99.90
2363;DHT22;1192;51.664;7.626;2022-09-30T04:02:45;11.30;99.90
2363;DHT22;1192;51.664;7.626;2022-09-30T04:05:12;11.30;99.90
2363;DHT22;1192;51.664;7.626;2022-09-30T04:07:40;11.30;99.90
2363;DHT22;1192;51.664;7.626;2022-09-30T04:10:08;11.30;99.90
2363;DHT22;1192;51.664;7.626;2022-09-30T04:12:34;11.30;99.90
2363;DHT22;1192;51.664;7.626;2022-09-30T04:15:01;11.30;99.90
2363;DHT22;1192;51.664;7.626;2022-09-30T04:17:28;11.30;99.90
2363;DHT22;1192;51.664;7.626;2022-09-30T04:19:55;11.30;99.90
2363;DHT22;1192;51.664;7.626;2022-09-30T04:22:21;11.30;99.90
2363;DHT22;1192;51.664;7.626;2022-09-30T04:24:49;11.30;99.90
2363;DHT22;1192;51.664;7.626;2022-09-30T04:27:16;11.30;99.90
2363;DHT22;1192;51.664;7.626;2022-09-30T04:29:43;11.20;99.90
2363;DHT22;1192;51.664;7.626;2022-09-30T04:32:10;11.20;99.90
2363;DHT22;1192;51.664;7.626;2022-09-30T04:34:36;11.20;99.90
2363;DHT22;1192;51.664;7.626;2022-09-30T04:37:03;11.20;99.90
2363;DHT22;1192;51.664;7.626;2022-09-30T04:39:30;11.20;99.90
2363;DHT22;1192;51.664;7.626;2022-09-30T04:41:58;11.20;99.90
2363;DHT22;1192;51.664;7.626;2022-09-30T04:44:24;11.20;99.90
2363;DHT22;1192;51.664;7.626;2022-09-30T04:46:51;11.20;99.90
2363;DHT22;1192;51.664;7.626;2022-09-30T04:49:18;11.20;99.90
2363;DHT22;1192;51.664;7.626;2022-09-30T04:51:45;11.20;99.90
2363;DHT22;1192;51.664;7.626;2022-09-30T04:54:12;11.20;99.90
2363;DHT22;1192;51.664;7.626;2022-09-30T04:56:41;11.10;99.90
2363;DHT22;1192;51.664;7.626;2022-09-30T04:59:09;11.10;99.90
2363;DHT22;1192;51.664;7.626;2022-09-30T05:01:36;11.10;99.90
2363;DHT22;1192;51.664;7.626;2022-09-30T05:04:03;11.10;99.90
2363;DHT22;1192;51.664;7.626;2022-09-30T05:06:30;11.10;99.90
2363;DHT22;1192;51.664;7.626;2022-09-30T05:08:57;11.10;99.90
2363;DHT22;1192;51.664;7.626;2022-09-30T05:11:23;11.10;99.90
2363;DHT22;1192;51.664;7.626;2022-09-30T05:13:50;11.10;99.90
2363;DHT22;1192;51.664;7.626;2022-09-30T05:16:18;11.10;99.90
2363;DHT22;1192;51.664;7.626;2022-09-30T05:18:46;11.00;99.90
2363;DHT22;1192;51.664;7.626;2022-09-30T05:21:15;11.00;99.90
2363;DHT22;1192;51.664;7.626;2022-09-30T05:23:42;11.00;99.90
2363;DHT22;1192;51.664;7.626;2022-09-30T05:26:09;11.00;99.90
2363;DHT22;1192;51.664;7.626;2022-09-30T05:28:36;11.00;99.90
2363;DHT22;1192;51.664;7.626;2022-09-30T05:31:04;11.00;99.90
2363;DHT22;1192;51.664;7.626;2022-09-30T05:33:33;11.00;99.90
2363;DHT22;1192;51.664;7.626;2022-09-30T05:36:01;11.00;99.90
2363;DHT22;1192;51.664;7.626;2022-09-30T05:38:29;11.00;99.90
2363;DHT22;1192;51.664;7.626;2022-09-30T05:40:56;11.00;99.90
2363;DHT22;1192;51.664;7.626;2022-09-30T05:43:22;11.00;99.90
2363;DHT22;1192;51.664;7.626;2022-09-30T05:45:53;11.00;99.90
2363;DHT22;1192;51.664;7.626;2022-09-30T05:48:20;11.00;99.90
2363;DHT22;1192;51.664;7.626;2022-09-30T05:50:52;10.90;99.90
2363;DHT22;1192;51.664;7.626;2022-09-30T05:53:19;10.90;99.90
2363;DHT22;1192;51.664;7.626;2022-09-30T05:55:47;10.90;99.90
2363;DHT22;1192;51.664;7.626;2022-09-30T05:58:15;10.90;99.90
2363;DHT22;1192;51.664;7.626;2022-09-30T06:00:43;10.90;99.90
2363;DHT22;1192;51.664;7.626;2022-09-30T06:03:10;10.90;99.90
2363;DHT22;1192;51.664;7.626;2022-09-30T06:05:38;10.90;99.90
2363;DHT22;1192;51.664;7.626;2022-09-30T06:08:06;10.90;99.90
2363;DHT22;1192;51.664;7.626;2022-09-30T06:10:33;10.90;99.90
2363;DHT22;1192;51.664;7.626;2022-09-30T06:13:01;10.90;99.90
2363;DHT22;1192;51.664;7.626;2022-09-30T06:15:28;10.90;99.90
2363;DHT22;1192;51.664;7.626;2022-09-30T06:17:55;10.90;99.90
2363;DHT22;1192;51.664;7.626;2022-09-30T06:20:21;10.90;99.90
2363;DHT22;1192;51.664;7.626;2022-09-30T06:22:48;10.90;99.90
2363;DHT22;1192;51.664;7.626;2022-09-30T06:25:16;11.00;99.90
2363;DHT22;1192;51.664;7.626;2022-09-30T06:27:44;11.00;99.90
2363;DHT22;1192;51.664;7.626;2022-09-30T06:30:12;11.10;99.90
2363;DHT22;1192;51.664;7.626;2022-09-30T06:32:39;11.20;99.90
2363;DHT22;1192;51.664;7.626;2022-09-30T06:35:07;11.20;99.90
2363;DHT22;1192;51.664;7.626;2022-09-30T06:37:34;11.30;99.90
2363;DHT22;1192;51.664;7.626;2022-09-30T06:40:02;11.30;99.90
2363;DHT22;1192;51.664;7.626;2022-09-30T06:42:30;11.40;99.90
2363;DHT22;1192;51.664;7.626;2022-09-30T06:44:57;11.40;99.90
2363;DHT22;1192;51.664;7.626;2022-09-30T06:47:24;11.40;99.90
2363;DHT22;1192;51.664;7.626;2022-09-30T06:49:50;11.40;99.90
2363;DHT22;1192;51.664;7.626;2022-09-30T06:52:23;11.40;99.90
2363;DHT22;1192;51.664;7.626;2022-09-30T06:54:49;11.40;99.90
2363;DHT22;1192;51.664;7.626;2022-09-30T06:57:17;11.40;99.90
2363;DHT22;1192;51.664;7.626;2022-09-30T06:59:48;11.40;99.90
2363;DHT22;1192;51.664;7.626;2022-09-30T07:02:15;11.50;99.90
2363;DHT22;1192;51.664;7.626;2022-09-30T07:04:42;11.60;99.90
2363;DHT22;1192;51.664;7.626;2022-09-30T07:07:09;11.90;99.90
2363;DHT22;1192;51.664;7.626;2022-09-30T07:09:36;11.90;99.90
2363;DHT22;1192;51.664;7.626;2022-09-30T07:12:03;12.00;99.90
2363;DHT22;1192;51.664;7.626;2022-09-30T07:14:30;12.20;99.90
2363;DHT22;1192;51.664;7.626;2022-09-30T07:16:59;12.30;99.90
2363;DHT22;1192;51.664;7.626;2022-09-30T07:19:28;12.50;99.90
2363;DHT22;1192;51.664;7.626;2022-09-30T07:21:55;12.60;99.90
2363;DHT22;1192;51.664;7.626;2022-09-30T07:24:41;12.70;99.90
2363;DHT22;1192;51.664;7.626;2022-09-30T07:27:08;12.90;99.90
2363;DHT22;1192;51.664;7.626;2022-09-30T07:29:35;13.00;99.90
2363;DHT22;1192;51.664;7.626;2022-09-30T07:32:03;13.10;99.90
2363;DHT22;1192;51.664;7.626;2022-09-30T07:34:29;13.20;99.90
2363;DHT22;1192;51.664;7.626;2022-09-30T07:36:56;13.30;99.90
2363;DHT22;1192;51.664;7.626;2022-09-30T07:39:23;13.40;99.90
2363;DHT22;1192;51.664;7.626;2022-09-30T07:41:52;13.50;99.90
2363;DHT22;1192;51.664;7.626;2022-09-30T07:44:19;13.50;99.90
2363;DHT22;1192;51.664;7.626;2022-09-30T07:46:46;13.60;99.90
2363;DHT22;1192;51.664;7.626;2022-09-30T07:49:15;13.60;99.90
2363;DHT22;1192;51.664;7.626;2022-09-30T07:51:49;13.70;99.90
2363;DHT22;1192;51.664;7.626;2022-09-30T07:54:18;13.80;99.90
2363;DHT22;1192;51.664;7.626;2022-09-30T07:56:47;13.80;99.90
2363;DHT22;1192;51.664;7.626;2022-09-30T07:59:15;13.80;99.90
2363;DHT22;1192;51.664;7.626;2022-09-30T08:01:41;13.90;99.90
2363;DHT22;1192;51.664;7.626;2022-09-30T08:04:09;13.90;99.90
2363;DHT22;1192;51.664;7.626;2022-09-30T08:06:40;14.00;99.90
2363;DHT22;1192;51.664;7.626;2022-09-30T08:09:08;14.00;99.90
2363;DHT22;1192;51.664;7.626;2022-09-30T08:11:35;14.00;99.90
2363;DHT22;1192;51.664;7.626;2022-09-30T08:14:02;14.10;99.90
2363;DHT22;1192;51.664;7.626;2022-09-30T08:16:29;14.10;99.90
2363;DHT22;1192;51.664;7.626;2022-09-30T08:18:58;14.10;99.90
2363;DHT22;1192;51.664;7.626;2022-09-30T08:21:25;14.10;99.90
2363;DHT22;1192;51.664;7.626;2022-09-30T08:23:53;14.30;99.90
2363;DHT22;1192;51.664;7.626;2022-09-30T08:26:20;14.40;99.90
2363;DHT22;1192;51.664;7.626;2022-09-30T08:28:48;14.30;99.90
2363;DHT22;1192;51.664;7.626;2022-09-30T08:31:17;14.30;99.90
2363;DHT22;1192;51.664;7.626;2022-09-30T08:33:44;14.30;99.90
2363;DHT22;1192;51.664;7.626;2022-09-30T08:36:12;14.30;99.90
2363;DHT22;1192;51.664;7.626;2022-09-30T08:38:39;14.30;99.90
2363;DHT22;1192;51.664;7.626;2022-09-30T08:41:19;14.20;99.90
2363;DHT22;1192;51.664;7.626;2022-09-30T08:43:58;14.30;99.90
2363;DHT22;1192;51.664;7.626;2022-09-30T08:46:35;14.30;99.90
2363;DHT22;1192;51.664;7.626;2022-09-30T08:49:17;14.30;99.90
2363;DHT22;1192;51.664;7.626;2022-09-30T08:51:47;14.30;99.90
2363;DHT22;1192;51.664;7.626;2022-09-30T08:54:18;14.30;99.90
2363;DHT22;1192;51.664;7.626;2022-09-30T08:56:47;14.30;99.90
2363;DHT22;1192;51.664;7.626;2022-09-30T08:59:27;14.30;99.90
2363;DHT22;1192;51.664;7.626;2022-09-30T09:02:01;14.40;99.90
2363;DHT22;1192;51.664;7.626;2022-09-30T09:04:35;14.40;99.90
2363;DHT22;1192;51.664;7.626;2022-09-30T09:07:06;14.40;99.90
2363;DHT22;1192;51.664;7.626;2022-09-30T09:09:55;14.40;99.90
2363;DHT22;1192;51.664;7.626;2022-09-30T09:12:33;14.40;99.90
2363;DHT22;1192;51.664;7.626;2022-09-30T09:15:34;14.40;99.90
2363;DHT22;1192;51.664;7.626;2022-09-30T09:18:20;14.40;99.90
2363;DHT22;1192;51.664;7.626;2022-09-30T09:20:53;14.40;99.90
2363;DHT22;1192;51.664;7.626;2022-09-30T09:23:21;14.40;99.90
2363;DHT22;1192;51.664;7.626;2022-09-30T09:25:48;14.40;99.90
2363;DHT22;1192;51.664;7.626;2022-09-30T09:28:28;14.40;99.90
2363;DHT22;1192;51.664;7.626;2022-09-30T09:30:58;14.40;99.90
2363;DHT22;1192;51.664;7.626;2022-09-30T09:33:28;14.30;99.90
2363;DHT22;1192;51.664;7.626;2022-09-30T09:36:03;14.40;99.90
2363;DHT22;1192;51.664;7.626;2022-09-30T09:38:36;14.40;99.90
2363;DHT22;1192;51.664;7.626;2022-09-30T09:41:13;14.40;99.90
2363;DHT22;1192;51.664;7.626;2022-09-30T09:43:50;14.40;99.90
2363;DHT22;1192;51.664;7.626;2022-09-30T09:46:23;14.40;99.90
2363;DHT22;1192;51.664;7.626;2022-09-30T09:49:25;14.40;99.90
2363;DHT22;1192;51.664;7.626;2022-09-30T09:52:00;14.40;99.90
2363;DHT22;1192;51.664;7.626;2022-09-30T09:54:32;14.40;99.90
2363;DHT22;1192;51.664;7.626;2022-09-30T09:57:04;14.40;99.90
2363;DHT22;1192;51.664;7.626;2022-09-30T09:59:37;14.40;99.90
2363;DHT22;1192;51.664;7.626;2022-09-30T10:02:21;14.40;99.90
2363;DHT22;1192;51.664;7.626;2022-09-30T10:04:49;14.40;99.90
2363;DHT22;1192;51.664;7.626;2022-09-30T10:07:25;14.30;99.90
2363;DHT22;1192;51.664;7.626;2022-09-30T10:10:06;14.30;99.90
2363;DHT22;1192;51.664;7.626;2022-09-30T10:12:34;14.30;99.90
2363;DHT22;1192;51.664;7.626;2022-09-30T10:15:12;14.30;99.90
2363;DHT22;1192;51.664;7.626;2022-09-30T10:17:41;14.30;99.90
2363;DHT22;1192;51.664;7.626;2022-09-30T10:20:20;14.30;99.90
2363;DHT22;1192;51.664;7.626;2022-09-30T10:22:48;14.30;99.90
2363;DHT22;1192;51.664;7.626;2022-09-30T10:25:20;14.30;99.90
2363;DHT22;1192;51.664;7.626;2022-09-30T10:27:52;14.30;99.90
2363;DHT22;1192;51.664;7.626;2022-09-30T10:30:33;14.30;99.90
2363;DHT22;1192;51.664;7.626;2022-09-30T10:33:01;14.30;99.90
2363;DHT22;1192;51.664;7.626;2022-09-30T10:35:29;14.30;99.90
2363;DHT22;1192;51.664;7.626;2022-09-30T10:37:58;14.30;99.90
2363;DHT22;1192;51.664;7.626;2022-09-30T10:40:27;14.30;99.90
2363;DHT22;1192;51.664;7.626;2022-09-30T10:42:55;14.30;99.90
2363;DHT22;1192;51.664;7.626;2022-09-30T10:45:23;14.30;99.90
2363;DHT22;1192;51.664;7.626;2022-09-30T10:47:55;14.30;99.90
2363;DHT22;1192;51.664;7.626;2022-09-30T10:50:24;14.30;99.90
2363;DHT22;1192;51.664;7.626;2022-09-30T10:52:55;14.30;99.90
2363;DHT22;1192;51.664;7.626;2022-09-30T10:55:29;14.30;99.90
2363;DHT22;1192;51.664;7.626;2022-09-30T10:58:03;14.30;99.90
2363;DHT22;1192;51.664;7.626;2022-09-30T11:00:46;14.30;99.90
2363;DHT22;1192;51.664;7.626;2022-09-30T11:03:20;14.30;99.90
2363;DHT22;1192;51.664;7.626;2022-09-30T11:05:48;14.20;99.90
2363;DHT22;1192;51.664;7.626;2022-09-30T11:08:19;14.30;99.90
2363;DHT22;1192;51.664;7.626;2022-09-30T11:10:55;14.30;99.90
2363;DHT22;1192;51.664;7.626;2022-09-30T11:13:28;14.20;99.90
2363;DHT22;1192;51.664;7.626;2022-09-30T11:16:04;14.30;99.90
2363;DHT22;1192;51.664;7.626;2022-09-30T11:18:42;14.30;99.90
2363;DHT22;1192;51.664;7.626;2022-09-30T11:21:14;14.20;99.90
2363;DHT22;1192;51.664;7.626;2022-09-30T11:23:44;14.20;99.90
2363;DHT22;1192;51.664;7.626;2022-09-30T11:26:23;14.20;99.90
2363;DHT22;1192;51.664;7.626;2022-09-30T11:29:10;14.20;99.90
2363;DHT22;1192;51.664;7.626;2022-09-30T11:31:48;14.30;99.90
2363;DHT22;1192;51.664;7.626;2022-09-30T11:34:30;14.30;99.90
2363;DHT22;1192;51.664;7.626;2022-09-30T11:37:04;14.30;99.90
2363;DHT22;1192;51.664;7.626;2022-09-30T11:40:01;14.30;99.90
2363;DHT22;1192;51.664;7.626;2022-09-30T11:42:36;14.30;99.90
2363;DHT22;1192;51.664;7.626;2022-09-30T11:45:20;14.30;99.90
2363;DHT22;1192;51.664;7.626;2022-09-30T11:47:58;14.30;99.90
2363;DHT22;1192;51.664;7.626;2022-09-30T11:50:42;14.30;99.90
2363;DHT22;1192;51.664;7.626;2022-09-30T11:53:20;14.30;99.90
2363;DHT22;1192;51.664;7.626;2022-09-30T11:56:08;14.30;99.90
2363;DHT22;1192;51.664;7.626;2022-09-30T11:58:41;14.30;99.90
2363;DHT22;1192;51.664;7.626;2022-09-30T12:01:19;14.30;99.90
2363;DHT22;1192;51.664;7.626;2022-09-30T12:03:56;14.30;99.90
2363;DHT22;1192;51.664;7.626;2022-09-30T12:06:31;14.30;99.90
2363;DHT22;1192;51.664;7.626;2022-09-30T12:09:04;14.30;99.90
2363;DHT22;1192;51.664;7.626;2022-09-30T12:11:36;14.30;99.90
2363;DHT22;1192;51.664;7.626;2022-09-30T12:14:13;14.40;99.90
2363;DHT22;1192;51.664;7.626;2022-09-30T12:16:41;14.30;99.90
2363;DHT22;1192;51.664;7.626;2022-09-30T12:19:14;14.30;99.90
2363;DHT22;1192;51.664;7.626;2022-09-30T12:21:48;14.30;99.90
2363;DHT22;1192;51.664;7.626;2022-09-30T12:24:21;14.30;99.90
2363;DHT22;1192;51.664;7.626;2022-09-30T12:26:49;14.40;99.90
2363;DHT22;1192;51.664;7.626;2022-09-30T12:29:18;14.40;99.90
2363;DHT22;1192;51.664;7.626;2022-09-30T12:32:50;14.30;99.90
2363;DHT22;1192;51.664;7.626;2022-09-30T12:35:34;14.30;99.90
2363;DHT22;1192;51.664;7.626;2022-09-30T12:38:19;14.30;99.90
2363;DHT22;1192;51.664;7.626;2022-09-30T12:40:55;14.30;99.90
2363;DHT22;1192;51.664;7.626;2022-09-30T12:43:53;14.30;99.90
2363;DHT22;1192;51.664;7.626;2022-09-30T12:46:40;14.30;99.90
